Time;durP1;ratioP1;P1;durP2;ratioP2;P2;SDS_P1;SDS_P2;PMS_P1;PMS_P2;Temp;Humidity;BMP_temperature;BMP_pressure;BME280_temperature;BME280_humidity;BME280_pressure;Samples;Min_cycle;Max_cycle;Signal;HPM_P1;HPM_P2
2022/03/02 00:02:48;;;;;;;19.10;8.97;;;;;-2.50;97158.00;;;;8404793;28;20223;-76
2022/03/02 00:06:52;;;;;;;20.70;8.53;;;;;-2.50;97157.00;;;;8407085;28;20230;-76
2022/03/02 00:10:55;;;;;;;18.20;9.37;;;;;-2.50;97153.00;;;;8409373;28;20269;-74
2022/03/02 00:14:59;;;;;;;18.67;8.87;;;;;-2.60;97160.00;;;;8404618;28;20219;-73
2022/03/02 00:19:03;;;;;;;18.57;8.87;;;;;-2.70;97149.00;;;;8407377;28;20218;-74
2022/03/02 00:23:07;;;;;;;23.17;9.23;;;;;-2.70;97162.00;;;;8405105;28;20231;-73
2022/03/02 00:27:10;;;;;;;20.83;9.40;;;;;-2.70;97162.00;;;;8404718;28;20227;-73
2022/03/02 00:31:14;;;;;;;21.07;9.40;;;;;-2.70;97166.00;;;;8405338;28;20228;-72
2022/03/02 00:35:17;;;;;;;18.90;9.00;;;;;-2.70;97162.00;;;;8407882;28;20223;-71
2022/03/02 00:39:21;;;;;;;23.50;9.23;;;;;-2.80;97157.00;;;;8406957;28;20227;-72
2022/03/02 00:43:24;;;;;;;23.27;9.73;;;;;-2.80;97145.00;;;;8408471;28;20281;-72
2022/03/02 00:47:28;;;;;;;23.03;9.47;;;;;-2.90;97155.00;;;;8401897;28;20688;-71
2022/03/02 00:51:31;;;;;;;21.43;9.57;;;;;-2.90;97151.00;;;;8402187;28;20265;-70
2022/03/02 00:55:37;;;;;;;21.23;9.23;;;;;-2.90;97149.00;;;;8406170;28;20690;-70
2022/03/02 00:59:40;;;;;;;17.80;8.50;;;;;-2.90;97150.00;;;;8406282;28;20223;-72
2022/03/02 01:03:43;;;;;;;25.87;9.60;;;;;-3.00;97149.00;;;;8407500;28;20246;-71
2022/03/02 01:07:46;;;;;;;22.40;10.00;;;;;-3.00;97146.00;;;;8404950;28;20276;-71
2022/03/02 01:11:51;;;;;;;22.17;8.63;;;;;-3.00;97128.00;;;;8403982;28;20221;-71
2022/03/02 01:15:54;;;;;;;19.60;9.23;;;;;-3.00;97111.00;;;;8405665;28;20290;-70
2022/03/02 01:19:57;;;;;;;17.50;9.07;;;;;-3.10;97124.00;;;;8404402;28;20226;-71
2022/03/02 01:24:00;;;;;;;20.53;9.27;;;;;-3.10;97127.00;;;;8398817;28;20222;-71
2022/03/02 01:28:04;;;;;;;16.33;7.90;;;;;-3.10;97119.00;;;;8404642;28;20249;-73
2022/03/02 01:32:10;;;;;;;19.97;9.20;;;;;-3.20;97112.00;;;;8402146;28;20241;-70
2022/03/02 01:36:13;;;;;;;19.80;8.53;;;;;-3.20;97100.00;;;;8404784;28;20700;-72
2022/03/02 01:40:16;;;;;;;20.27;8.63;;;;;-3.30;97101.00;;;;8403059;28;20234;-72
2022/03/02 01:44:21;;;;;;;17.23;8.07;;;;;-3.40;97099.00;;;;8403456;28;20340;-72
2022/03/02 01:48:24;;;;;;;14.93;7.67;;;;;-3.60;97089.00;;;;8402983;28;20234;-72
2022/03/02 01:52:27;;;;;;;16.47;8.00;;;;;-3.70;97060.00;;;;8405237;28;20250;-71
2022/03/02 01:56:31;;;;;;;20.77;8.77;;;;;-3.80;97061.00;;;;8401556;28;20235;-73
2022/03/02 02:00:35;;;;;;;18.47;7.30;;;;;-3.90;97061.00;;;;8403595;28;20260;-71
2022/03/02 02:04:38;;;;;;;19.30;8.43;;;;;-4.00;97056.00;;;;8401387;28;20234;-72
2022/03/02 02:08:42;;;;;;;17.27;7.63;;;;;-3.90;97053.00;;;;8404503;28;20619;-72
2022/03/02 02:12:45;;;;;;;16.87;8.27;;;;;-3.90;97050.00;;;;8405032;28;20230;-71
2022/03/02 02:16:49;;;;;;;16.43;8.10;;;;;-3.90;97042.00;;;;8405013;28;20231;-72
2022/03/02 02:20:54;;;;;;;18.53;8.33;;;;;-3.90;97058.00;;;;8401923;28;20659;-72
2022/03/02 02:24:57;;;;;;;18.43;8.50;;;;;-3.80;97057.00;;;;8402902;28;20233;-73
2022/03/02 02:29:00;;;;;;;20.57;8.07;;;;;-3.90;97049.00;;;;8405062;28;20278;-71
2022/03/02 02:33:03;;;;;;;18.17;7.53;;;;;-3.90;97045.00;;;;8409923;28;20234;-73
2022/03/02 02:37:09;;;;;;;19.67;8.70;;;;;-3.90;97034.00;;;;8406712;28;20230;-72
2022/03/02 02:41:15;;;;;;;17.10;7.27;;;;;-4.00;97027.00;;;;8402874;28;20259;-72
2022/03/02 02:45:20;;;;;;;19.03;8.17;;;;;-4.10;97006.00;;;;8404514;28;20312;-72
2022/03/02 02:49:24;;;;;;;19.17;8.03;;;;;-4.20;97007.00;;;;8404680;28;20254;-73
2022/03/02 02:53:28;;;;;;;17.53;7.87;;;;;-4.30;96989.00;;;;8402682;28;20289;-72
2022/03/02 02:57:31;;;;;;;17.93;8.80;;;;;-4.40;96983.00;;;;8408306;28;20225;-72
2022/03/02 03:01:34;;;;;;;17.80;8.30;;;;;-4.40;96971.00;;;;8453274;22;20278;-73
2022/03/02 03:05:38;;;;;;;17.83;8.17;;;;;-4.40;96959.00;;;;8398925;28;20328;-73
2022/03/02 03:09:42;;;;;;;27.70;10.30;;;;;-4.00;96963.00;;;;8402831;28;20226;-74
2022/03/02 03:13:45;;;;;;;21.60;9.07;;;;;-3.40;96962.00;;;;8412170;28;20232;-74
2022/03/02 03:17:48;;;;;;;21.20;9.00;;;;;-2.90;96965.00;;;;8406975;28;22233;-74
2022/03/02 03:21:53;;;;;;;21.77;9.20;;;;;-2.40;96981.00;;;;8400596;28;20230;-74
2022/03/02 03:25:57;;;;;;;19.23;8.30;;;;;-2.30;96985.00;;;;8409181;28;20288;-74
2022/03/02 03:30:00;;;;;;;25.87;9.10;;;;;-2.40;96988.00;;;;8401207;28;20227;-74
2022/03/02 03:34:03;;;;;;;20.13;8.37;;;;;-2.50;97000.00;;;;8411414;28;20215;-73
2022/03/02 03:38:06;;;;;;;20.87;7.97;;;;;-2.60;96998.00;;;;8408509;28;20219;-74
2022/03/02 03:42:11;;;;;;;17.10;8.43;;;;;-2.70;97005.00;;;;8402011;28;20273;-74
2022/03/02 03:46:14;;;;;;;17.07;7.57;;;;;-2.80;97002.00;;;;8404996;28;20231;-74
2022/03/02 03:50:17;;;;;;;27.17;10.63;;;;;-3.10;97004.00;;;;8404112;28;20265;-74
2022/03/02 03:54:20;;;;;;;24.00;10.10;;;;;-3.20;97002.00;;;;8400461;28;20227;-75
2022/03/02 03:58:24;;;;;;;19.33;8.90;;;;;-3.20;96993.00;;;;8404023;28;20285;-74
2022/03/02 04:02:27;;;;;;;18.37;8.73;;;;;-3.20;97000.00;;;;8390216;28;20262;-73
2022/03/02 04:06:31;;;;;;;22.90;9.70;;;;;-3.20;96992.00;;;;8371536;28;20281;-74
2022/03/02 04:10:34;;;;;;;17.90;8.83;;;;;-3.00;96993.00;;;;8373064;28;20842;-73
2022/03/02 04:14:38;;;;;;;22.07;8.50;;;;;-2.90;96983.00;;;;8373975;28;20237;-74
2022/03/02 04:18:41;;;;;;;21.00;8.77;;;;;-2.80;96990.00;;;;8372591;28;20613;-74
2022/03/02 04:22:44;;;;;;;24.67;9.87;;;;;-2.70;96978.00;;;;8372112;28;20232;-76
2022/03/02 04:26:47;;;;;;;17.90;8.83;;;;;-2.50;96975.00;;;;8371582;28;20232;-74
2022/03/02 04:30:52;;;;;;;19.57;8.80;;;;;-2.10;96965.00;;;;8373172;28;20223;-74
2022/03/02 04:34:55;;;;;;;18.20;9.03;;;;;-1.90;96957.00;;;;8379103;28;20232;-74
2022/03/02 04:38:58;;;;;;;25.37;10.17;;;;;-1.90;96950.00;;;;8369722;28;20760;-74
2022/03/02 04:43:01;;;;;;;17.80;8.57;;;;;-1.90;96954.00;;;;8369415;28;20227;-74
2022/03/02 04:47:06;;;;;;;16.00;7.50;;;;;-1.90;96944.00;;;;8373616;28;20681;-72
2022/03/02 04:51:09;;;;;;;13.33;7.57;;;;;-2.10;96951.00;;;;8372410;28;21683;-71
2022/03/02 04:55:12;;;;;;;14.67;7.33;;;;;-2.30;96946.00;;;;8374057;28;20224;-73
2022/03/02 04:59:15;;;;;;;15.80;7.13;;;;;-2.50;96948.00;;;;8371897;28;20223;-73
2022/03/02 05:03:20;;;;;;;16.07;7.43;;;;;-2.50;96949.00;;;;8375517;28;20228;-75
2022/03/02 05:07:23;;;;;;;15.73;8.00;;;;;-2.70;96950.00;;;;8374568;28;20657;-72
2022/03/02 05:11:26;;;;;;;15.47;7.77;;;;;-2.80;96937.00;;;;8372568;28;20227;-72
2022/03/02 05:15:30;;;;;;;19.77;8.10;;;;;-2.80;96934.00;;;;8371210;28;20285;-73
2022/03/02 05:19:35;;;;;;;19.90;8.93;;;;;-2.80;96934.00;;;;8376020;28;20231;-72
2022/03/02 05:23:38;;;;;;;17.90;8.17;;;;;-2.80;96945.00;;;;8371575;28;20308;-72
2022/03/02 05:27:42;;;;;;;19.33;8.07;;;;;-2.80;96932.00;;;;8371465;28;20235;-73
2022/03/02 05:31:50;;;;;;;19.70;8.37;;;;;-2.80;96928.00;;;;8369246;28;20853;-72
2022/03/02 05:35:55;;;;;;;17.37;8.33;;;;;-2.90;96917.00;;;;8371433;28;20289;-72
2022/03/02 05:39:58;;;;;;;19.57;8.63;;;;;-2.90;96928.00;;;;8370211;28;20960;-72
2022/03/02 05:44:02;;;;;;;17.50;8.23;;;;;-3.00;96925.00;;;;8369415;28;20224;-72
2022/03/02 05:48:06;;;;;;;21.50;8.73;;;;;-3.00;96912.00;;;;8372102;28;20599;-72
2022/03/02 05:52:10;;;;;;;16.60;7.73;;;;;-3.10;96914.00;;;;8370206;28;20231;-73
2022/03/02 05:56:13;;;;;;;17.23;8.33;;;;;-3.10;96916.00;;;;8368811;28;20231;-74
2022/03/02 06:00:17;;;;;;;16.00;8.53;;;;;-3.10;96913.00;;;;8369167;28;20224;-72
2022/03/02 06:04:20;;;;;;;20.70;9.43;;;;;-3.10;96919.00;;;;8370883;28;20223;-73
2022/03/02 06:08:25;;;;;;;21.03;8.40;;;;;-3.10;96919.00;;;;8376895;28;20239;-73
2022/03/02 06:12:28;;;;;;;17.60;8.00;;;;;-3.10;96908.00;;;;8370782;28;20237;-73
2022/03/02 06:16:32;;;;;;;19.73;8.40;;;;;-3.10;96913.00;;;;8373113;28;20301;-73
2022/03/02 06:20:35;;;;;;;19.00;8.97;;;;;-3.00;96907.00;;;;8373528;28;20239;-74
2022/03/02 06:24:41;;;;;;;19.13;8.60;;;;;-2.90;96908.00;;;;8372062;28;20691;-74
2022/03/02 06:28:44;;;;;;;17.77;8.03;;;;;-2.80;96917.00;;;;8367617;28;20227;-75
2022/03/02 06:32:48;;;;;;;17.93;9.23;;;;;-2.60;96920.00;;;;8371644;28;20252;-73
2022/03/02 06:36:51;;;;;;;23.13;10.07;;;;;-2.40;96925.00;;;;8372092;28;20238;-74
2022/03/02 06:41:02;;;;;;;23.40;9.03;;;;;-2.20;96919.00;;;;8371108;28;20235;-74
2022/03/02 06:45:11;;;;;;;22.50;9.43;;;;;-2.00;96927.00;;;;8352285;28;20220;-72
2022/03/02 06:49:25;;;;;;;23.17;10.47;;;;;-1.80;96919.00;;;;8366640;28;20281;-72
2022/03/02 06:53:32;;;;;;;19.53;9.67;;;;;-1.60;96922.00;;;;8372419;28;20220;-73
2022/03/02 06:57:38;;;;;;;23.13;9.27;;;;;-1.30;96922.00;;;;8367141;28;20284;-70
2022/03/02 07:01:52;;;;;;;20.90;9.77;;;;;-1.10;96938.00;;;;8367645;28;20227;-69
2022/03/02 07:05:56;;;;;;;22.47;9.73;;;;;-0.80;96935.00;;;;8370355;28;20259;-71
2022/03/02 07:10:00;;;;;;;22.93;10.07;;;;;-0.50;96932.00;;;;8365914;28;20238;-70
2022/03/02 07:14:08;;;;;;;23.50;10.23;;;;;-0.30;96942.00;;;;8367326;28;20231;-71
2022/03/02 07:18:11;;;;;;;21.73;10.53;;;;;-0.10;96926.00;;;;8372456;28;20954;-69
2022/03/02 07:22:19;;;;;;;21.87;10.20;;;;;0.20;96949.00;;;;8375242;28;20775;-69
2022/03/02 07:26:23;;;;;;;21.77;9.90;;;;;0.40;96942.00;;;;8365533;28;20265;-71
2022/03/02 07:30:29;;;;;;;21.10;10.83;;;;;0.70;96949.00;;;;8364956;28;20228;-71
2022/03/02 07:34:33;;;;;;;21.37;10.93;;;;;0.90;96939.00;;;;8371083;28;20274;-72
2022/03/02 07:38:37;;;;;;;22.27;10.73;;;;;1.20;96938.00;;;;8364982;28;20228;-69
2022/03/02 07:42:41;;;;;;;18.67;9.87;;;;;1.50;96925.00;;;;8370972;28;20549;-69
2022/03/02 07:46:46;;;;;;;24.20;10.60;;;;;1.70;96936.00;;;;8382777;28;20994;-70
2022/03/02 07:50:50;;;;;;;18.70;10.77;;;;;1.90;96931.00;;;;8376493;28;20396;-69
2022/03/02 07:54:57;;;;;;;20.40;9.80;;;;;2.20;96937.00;;;;8378887;28;20219;-70
2022/03/02 07:59:05;;;;;;;23.47;10.87;;;;;2.50;96938.00;;;;8376878;28;20228;-70
2022/03/02 08:03:14;;;;;;;18.67;10.33;;;;;2.70;96943.00;;;;8378678;28;20231;-70
2022/03/02 08:07:18;;;;;;;24.60;10.63;;;;;3.00;96939.00;;;;8380453;28;20240;-69
2022/03/02 08:11:22;;;;;;;26.53;10.93;;;;;3.10;96945.00;;;;8374168;28;20934;-70
2022/03/02 08:15:26;;;;;;;23.27;10.17;;;;;3.30;96944.00;;;;8370255;28;20625;-71
2022/03/02 08:19:31;;;;;;;21.63;11.57;;;;;3.60;96945.00;;;;8381682;28;20663;-69
2022/03/02 08:23:38;;;;;;;26.17;11.27;;;;;3.90;96935.00;;;;8383929;28;20838;-69
2022/03/02 08:27:43;;;;;;;26.53;12.60;;;;;4.20;96942.00;;;;8385228;28;20227;-70
2022/03/02 08:31:48;;;;;;;23.87;11.40;;;;;4.50;96937.00;;;;8384887;28;20253;-69
2022/03/02 08:35:53;;;;;;;26.57;11.73;;;;;4.60;96935.00;;;;8389036;28;20232;-71
2022/03/02 08:39:56;;;;;;;23.43;11.73;;;;;4.90;96935.00;;;;8388000;28;20224;-72
2022/03/02 08:44:00;;;;;;;21.07;11.03;;;;;5.20;96932.00;;;;8387909;28;20574;-70
2022/03/02 08:48:05;;;;;;;18.90;10.53;;;;;5.30;96927.00;;;;8394287;28;20252;-72
2022/03/02 08:52:11;;;;;;;19.00;10.53;;;;;5.50;96924.00;;;;8377077;28;20286;-71
2022/03/02 08:56:14;;;;;;;22.50;10.07;;;;;5.60;96926.00;;;;8372463;28;20234;-69
2022/03/02 09:00:17;;;;;;;21.60;9.93;;;;;5.60;96925.00;;;;8371262;28;20332;-67
2022/03/02 09:04:22;;;;;;;17.10;9.07;;;;;5.50;96928.00;;;;8370323;28;20737;-69
2022/03/02 09:08:26;;;;;;;24.47;9.87;;;;;5.50;96921.00;;;;8370541;28;20237;-70
2022/03/02 09:12:30;;;;;;;20.80;9.27;;;;;5.70;96916.00;;;;8373641;28;20332;-69
2022/03/02 09:16:33;;;;;;;20.53;9.53;;;;;5.70;96913.00;;;;8371918;28;20848;-74
2022/03/02 09:20:38;;;;;;;19.03;8.97;;;;;5.80;96926.00;;;;8368731;28;20282;-68
2022/03/02 09:24:43;;;;;;;21.13;10.33;;;;;5.80;96920.00;;;;8381312;28;20227;-69
2022/03/02 09:28:48;;;;;;;17.30;9.57;;;;;5.80;96919.00;;;;8368523;28;20246;-68
2022/03/02 09:32:53;;;;;;;17.03;9.20;;;;;5.80;96918.00;;;;8369967;28;20280;-71
2022/03/02 09:36:59;;;;;;;18.17;9.53;;;;;5.90;96918.00;;;;8370234;28;20256;-73
2022/03/02 09:41:08;;;;;;;16.20;9.03;;;;;6.00;96915.00;;;;8371097;28;20243;-72
2022/03/02 09:45:12;;;;;;;19.10;10.20;;;;;6.30;96916.00;;;;8370593;28;20231;-70
2022/03/02 09:49:20;;;;;;;19.23;9.67;;;;;6.50;96914.00;;;;8366899;28;20302;-71
2022/03/02 09:53:28;;;;;;;16.80;9.00;;;;;6.70;96905.00;;;;8374593;28;20269;-72
2022/03/02 09:57:34;;;;;;;17.53;8.87;;;;;6.80;96917.00;;;;8384289;28;20233;-82
2022/03/02 10:01:41;;;;;;;16.17;9.73;;;;;6.90;96919.00;;;;8383672;28;20240;-78
2022/03/02 10:05:48;;;;;;;15.83;8.77;;;;;7.00;96907.00;;;;8385026;28;20223;-73
2022/03/02 10:10:02;;;;;;;18.33;8.50;;;;;7.10;96903.00;;;;8379544;28;20257;-75
2022/03/02 10:14:07;;;;;;;14.73;8.80;;;;;7.20;96899.00;;;;8387430;28;20307;-73
2022/03/02 10:18:13;;;;;;;16.33;8.17;;;;;7.30;96906.00;;;;8379187;28;20327;-78
2022/03/02 10:22:36;;;;;;;18.50;9.00;;;;;7.20;96901.00;;;;8374289;28;20217;-74
2022/03/02 10:26:50;;;;;;;18.77;9.37;;;;;7.20;96896.00;;;;8374223;28;20229;-76
2022/03/02 10:31:09;;;;;;;16.50;8.87;;;;;7.30;96886.00;;;;8374744;28;20224;-74
2022/03/02 10:35:15;;;;;;;17.33;8.23;;;;;7.40;96893.00;;;;8374377;28;20221;-77
2022/03/02 10:39:32;;;;;;;20.73;8.73;;;;;7.60;96888.00;;;;8368818;28;20585;-78
2022/03/02 10:43:42;;;;;;;14.30;8.17;;;;;7.80;96878.00;;;;8372437;28;20278;-75
2022/03/02 10:47:55;;;;;;;17.37;9.03;;;;;7.80;96886.00;;;;8384587;28;20710;-75
2022/03/02 10:52:01;;;;;;;15.43;8.27;;;;;8.00;96879.00;;;;8386942;28;20228;-74
2022/03/02 10:56:05;;;;;;;32.80;13.43;;;;;7.90;96887.00;;;;8372007;28;20269;-76
2022/03/02 11:00:13;;;;;;;19.30;10.23;;;;;7.90;96884.00;;;;8371128;28;20224;-77
2022/03/02 11:04:20;;;;;;;20.47;9.67;;;;;8.00;96879.00;;;;8371670;28;20227;-73
2022/03/02 11:08:25;;;;;;;16.90;8.23;;;;;8.00;96878.00;;;;8372379;28;20669;-75
2022/03/02 11:12:30;;;;;;;17.07;8.50;;;;;8.00;96861.00;;;;8373807;28;20219;-72
2022/03/02 11:16:33;;;;;;;18.10;8.10;;;;;8.00;96848.00;;;;8375317;28;20215;-76
2022/03/02 11:20:38;;;;;;;16.30;8.77;;;;;7.90;96850.00;;;;8377676;28;20752;-74
2022/03/02 11:24:41;;;;;;;20.73;9.37;;;;;7.90;96854.00;;;;8373902;28;20280;-73
2022/03/02 11:28:48;;;;;;;15.63;8.33;;;;;7.90;96853.00;;;;8373505;28;20390;-75
2022/03/02 11:32:51;;;;;;;16.80;8.07;;;;;7.60;96842.00;;;;8370990;28;20277;-76
2022/03/02 11:36:59;;;;;;;17.83;8.53;;;;;7.80;96836.00;;;;8378521;28;20619;-77
2022/03/02 11:41:02;;;;;;;14.53;8.53;;;;;8.00;96837.00;;;;8374056;28;20335;-78
2022/03/02 11:45:08;;;;;;;20.27;10.33;;;;;7.80;96832.00;;;;8374112;28;20227;-75
2022/03/02 11:49:11;;;;;;;19.07;8.47;;;;;7.70;96827.00;;;;8383939;28;20578;-77
2022/03/02 11:53:15;;;;;;;19.03;8.97;;;;;7.80;96829.00;;;;8378972;28;20254;-76
2022/03/02 11:57:21;;;;;;;16.80;8.60;;;;;7.90;96825.00;;;;8375676;28;20238;-78
2022/03/02 12:01:27;;;;;;;15.30;8.20;;;;;8.30;96820.00;;;;8373267;28;20222;-81
2022/03/02 12:06:05;;;;;;;19.20;8.97;;;;;8.50;96815.00;;;;8373801;28;20224;-81
2022/03/02 12:10:22;;;;;;;13.73;7.77;;;;;8.60;96808.00;;;;8373739;28;20308;-79
2022/03/02 12:14:25;;;;;;;14.40;7.50;;;;;8.80;96819.00;;;;8370790;28;20223;-79
2022/03/02 12:18:28;;;;;;;15.17;8.03;;;;;9.00;96811.00;;;;8373176;28;20239;-81
2022/03/02 12:22:33;;;;;;;15.80;8.43;;;;;9.10;96805.00;;;;8372325;28;21017;-79
2022/03/02 12:26:39;;;;;;;16.47;6.97;;;;;9.30;96805.00;;;;8369304;28;20920;-82
2022/03/02 12:30:43;;;;;;;14.27;7.53;;;;;9.40;96801.00;;;;8369656;28;20235;-80
2022/03/02 12:34:50;;;;;;;14.87;7.37;;;;;9.40;96795.00;;;;8372641;28;20588;-79
2022/03/02 12:38:53;;;;;;;13.33;6.73;;;;;9.40;96790.00;;;;8372138;28;20223;-79
2022/03/02 12:42:58;;;;;;;14.87;7.57;;;;;9.30;96786.00;;;;8375577;28;20219;-81
2022/03/02 12:47:04;;;;;;;14.87;7.97;;;;;9.40;96784.00;;;;8372751;28;20225;-81
2022/03/02 12:51:07;;;;;;;15.63;7.27;;;;;9.60;96783.00;;;;8376225;28;20236;-81
2022/03/02 12:55:12;;;;;;;17.20;7.33;;;;;9.90;96779.00;;;;8371215;28;20230;-78
2022/03/02 12:59:17;;;;;;;18.70;8.43;;;;;10.20;96775.00;;;;8369183;28;20231;-78
2022/03/02 13:03:29;;;;;;;14.27;7.47;;;;;10.40;96769.00;;;;8371173;28;20228;-77
2022/03/02 13:07:44;;;;;;;14.35;7.10;;;;;10.60;96765.00;;;;8368115;28;20321;-74
2022/03/02 13:11:47;;;;;;;12.90;6.93;;;;;10.80;96764.00;;;;8369312;28;20942;-74
2022/03/02 13:15:52;;;;;;;12.73;6.53;;;;;10.80;96769.00;;;;8371384;28;20251;-74
2022/03/02 13:25:27;;;;;;;12.25;6.10;;;;;10.10;96754.00;;;;8426609;28;20648;-75
2022/03/02 13:30:08;;;;;;;10.90;6.47;;;;;9.80;96742.00;;;;8427956;28;20257;-75
2022/03/02 13:35:03;;;;;;;11.37;5.77;;;;;9.70;96733.00;;;;8428974;28;20513;-74
2022/03/02 13:39:20;;;;;;;10.23;5.93;;;;;9.80;96735.00;;;;8428158;28;20215;-81
2022/03/02 13:43:54;;;;;;;9.67;5.30;;;;;10.00;96739.00;;;;8428260;28;20253;-81
2022/03/02 13:48:30;;;;;;;8.02;5.55;;;;;10.30;96735.00;;;;8428159;28;20226;-82
2022/03/02 13:53:08;;;;;;;11.70;5.80;;;;;10.30;96739.00;;;;8428739;28;20227;-81
2022/03/02 13:57:42;;;;;;;10.57;5.78;;;;;10.30;96733.00;;;;8427620;28;20218;-81
2022/03/02 14:02:20;;;;;;;10.83;6.20;;;;;10.30;96733.00;;;;8426678;28;20223;-76
2022/03/02 14:06:59;;;;;;;10.38;6.35;;;;;10.30;96735.00;;;;8427946;28;20303;-77
2022/03/02 14:11:43;;;;;;;8.30;5.07;;;;;10.40;96722.00;;;;8426998;28;20234;-76
2022/03/02 14:16:13;;;;;;;7.78;5.78;;;;;10.40;96723.00;;;;8427119;28;20216;-76
2022/03/02 14:20:50;;;;;;;11.35;5.88;;;;;10.30;96718.00;;;;8427758;28;20646;-76
2022/03/02 14:24:53;;;;;;;7.57;4.82;;;;;10.50;96716.00;;;;8427002;28;20219;-71
2022/03/02 14:29:32;;;;;;;10.48;5.88;;;;;10.70;96720.00;;;;8427257;28;20231;-70
2022/03/02 14:34:07;;;;;;;8.60;5.55;;;;;10.80;96717.00;;;;8427492;28;20224;-71
2022/03/02 14:38:44;;;;;;;14.30;6.00;;;;;10.80;96718.00;;;;8426576;28;20632;-71
2022/03/02 14:43:21;;;;;;;12.98;6.75;;;;;10.70;96722.00;;;;8426530;28;20219;-71
2022/03/02 14:47:57;;;;;;;10.90;6.15;;;;;10.40;96716.00;;;;8424777;28;20219;-72
2022/03/02 14:52:35;;;;;;;13.43;6.40;;;;;10.20;96712.00;;;;8426179;28;20272;-74
2022/03/02 14:56:45;;;;;;;10.50;6.47;;;;;9.90;96707.00;;;;8426496;28;20219;-74
2022/03/02 15:01:17;;;;;;;13.03;7.17;;;;;9.70;96710.00;;;;8427096;28;20571;-75
2022/03/02 15:05:22;;;;;;;10.33;5.40;;;;;9.70;96709.00;;;;8426289;28;20313;-76
2022/03/02 15:10:05;;;;;;;11.10;5.97;;;;;9.60;96705.00;;;;8426292;28;20276;-75
2022/03/02 15:15:00;;;;;;;7.95;5.72;;;;;9.60;96704.00;;;;8427052;28;20260;-75
2022/03/02 15:19:20;;;;;;;9.27;5.63;;;;;9.40;96697.00;;;;8426690;28;20644;-74
2022/03/02 15:23:54;;;;;;;9.37;5.90;;;;;9.30;96696.00;;;;8425942;28;20636;-75
2022/03/02 15:28:32;;;;;;;8.63;6.13;;;;;9.20;96688.00;;;;8426724;28;20625;-75
2022/03/02 15:33:11;;;;;;;10.77;5.80;;;;;9.00;96698.00;;;;8424625;28;20652;-76
2022/03/02 15:37:46;;;;;;;14.07;7.30;;;;;8.80;96692.00;;;;8420862;28;20598;-78
2022/03/02 15:42:24;;;;;;;14.33;7.37;;;;;8.50;96684.00;;;;8425215;28;20219;-76
2022/03/02 15:47:00;;;;;;;13.87;7.97;;;;;8.10;96672.00;;;;8424239;28;20225;-75
2022/03/02 15:51:34;;;;;;;17.50;8.67;;;;;7.80;96674.00;;;;8425121;28;20269;-75
2022/03/02 15:56:12;;;;;;;21.03;9.57;;;;;7.50;96674.00;;;;8424912;28;20234;-74
2022/03/02 16:00:46;;;;;;;23.73;8.93;;;;;7.30;96673.00;;;;8426049;28;20279;-74
2022/03/02 16:05:01;;;;;;;23.00;8.67;;;;;7.10;96662.00;;;;8430533;28;20658;-74
2022/03/02 16:09:25;;;;;;;18.10;8.90;;;;;6.90;96669.00;;;;8431692;28;20259;-74
2022/03/02 16:14:03;;;;;;;17.33;8.93;;;;;6.70;96666.00;;;;8430402;28;20275;-75
2022/03/02 16:18:37;;;;;;;17.53;8.97;;;;;6.50;96669.00;;;;8430879;28;20246;-74
2022/03/02 16:23:17;;;;;;;18.53;10.30;;;;;6.30;96665.00;;;;8430989;28;20222;-73
2022/03/02 16:27:57;;;;;;;18.13;9.60;;;;;6.10;96671.00;;;;8430231;28;20223;-74
2022/03/02 16:32:34;;;;;;;30.43;12.33;;;;;5.90;96663.00;;;;8429874;28;20288;-74
2022/03/02 16:37:05;;;;;;;32.63;11.87;;;;;5.70;96662.00;;;;8430090;28;20223;-73
2022/03/02 16:41:44;;;;;;;28.00;10.83;;;;;5.50;96664.00;;;;8430639;28;20226;-73
2022/03/02 16:46:13;;;;;;;21.60;9.70;;;;;5.30;96668.00;;;;8429505;28;20208;-73
2022/03/02 16:50:50;;;;;;;19.70;9.63;;;;;5.00;96664.00;;;;8430170;28;20222;-74
2022/03/02 16:55:24;;;;;;;20.43;9.97;;;;;4.60;96661.00;;;;8428882;28;20555;-75
2022/03/02 17:00:03;;;;;;;22.27;10.20;;;;;4.40;96663.00;;;;8428883;28;20294;-77
2022/03/02 17:04:07;;;;;;;24.73;10.00;;;;;4.20;96657.00;;;;8429429;28;20219;-75
2022/03/02 17:08:41;;;;;;;19.40;9.93;;;;;4.00;96658.00;;;;8428666;28;20226;-75
2022/03/02 17:13:18;;;;;;;22.13;10.30;;;;;3.80;96662.00;;;;8427878;28;20218;-75
2022/03/02 17:17:22;;;;;;;21.03;9.30;;;;;3.70;96656.00;;;;8429354;28;20309;-75
2022/03/02 17:21:56;;;;;;;30.90;10.80;;;;;3.50;96660.00;;;;8428398;28;20654;-75
2022/03/02 17:26:32;;;;;;;26.00;10.10;;;;;3.40;96664.00;;;;8428118;28;20612;-76
2022/03/02 17:31:09;;;;;;;24.17;10.00;;;;;3.20;96663.00;;;;8429025;28;20276;-76
2022/03/02 17:35:47;;;;;;;28.07;10.27;;;;;3.00;96666.00;;;;8427568;28;20216;-75
2022/03/02 17:40:22;;;;;;;23.23;10.37;;;;;2.90;96663.00;;;;8428242;28;20221;-76
2022/03/02 17:44:58;;;;;;;27.53;11.20;;;;;2.90;96666.00;;;;8428172;28;20270;-76
2022/03/02 17:49:35;;;;;;;22.27;10.03;;;;;2.80;96663.00;;;;8427728;28;20323;-75
2022/03/02 17:54:13;;;;;;;24.40;10.60;;;;;2.80;96658.00;;;;8427737;28;20230;-75
2022/03/02 17:58:48;;;;;;;28.87;10.80;;;;;2.70;96646.00;;;;8427634;28;20219;-75
2022/03/02 18:03:25;;;;;;;21.07;10.37;;;;;2.60;96653.00;;;;8426986;28;20244;-74
2022/03/02 18:08:02;;;;;;;19.87;9.83;;;;;2.50;96645.00;;;;8426953;28;20251;-74
2022/03/02 18:12:41;;;;;;;33.23;12.00;;;;;2.30;96646.00;;;;8426117;28;20235;-75
2022/03/02 18:17:15;;;;;;;38.10;13.03;;;;;2.00;96639.00;;;;8427896;28;20216;-73
2022/03/02 18:21:52;;;;;;;27.07;12.30;;;;;1.80;96636.00;;;;8426695;28;20273;-76
2022/03/02 18:26:32;;;;;;;30.93;12.50;;;;;1.50;96628.00;;;;8422421;28;20215;-75
2022/03/02 18:31:06;;;;;;;30.00;14.03;;;;;1.20;96632.00;;;;8426943;28;20224;-73
2022/03/02 18:35:41;;;;;;;28.50;12.63;;;;;1.10;96629.00;;;;8426319;28;20268;-76
2022/03/02 18:40:18;;;;;;;56.43;17.93;;;;;0.90;96624.00;;;;8426669;28;20221;-76
2022/03/02 18:44:54;;;;;;;33.80;13.50;;;;;0.70;96625.00;;;;8427160;28;20212;-79
2022/03/02 18:49:28;;;;;;;30.97;12.77;;;;;0.60;96621.00;;;;8425615;28;20309;-78
2022/03/02 18:54:04;;;;;;;27.90;11.93;;;;;0.60;96615.00;;;;8425991;28;20223;-78
2022/03/02 18:58:41;;;;;;;26.13;11.27;;;;;0.50;96617.00;;;;8427528;28;20216;-78
2022/03/02 19:03:18;;;;;;;26.40;11.53;;;;;0.50;96623.00;;;;8427116;28;20231;-78
2022/03/02 19:07:57;;;;;;;31.47;14.27;;;;;0.40;96624.00;;;;8426333;28;20644;-76
2022/03/02 19:12:34;;;;;;;39.80;14.50;;;;;0.40;96629.00;;;;8426148;28;20223;-77
2022/03/02 19:17:08;;;;;;;35.97;13.60;;;;;0.30;96631.00;;;;8427666;28;20298;-77
2022/03/02 19:21:47;;;;;;;40.80;14.00;;;;;0.30;96637.00;;;;8426052;28;20215;-77
2022/03/02 19:26:22;;;;;;;30.07;13.30;;;;;0.30;96636.00;;;;8426668;28;20215;-77
2022/03/02 19:30:58;;;;;;;27.00;10.90;;;;;0.20;96635.00;;;;8426326;28;20289;-77
2022/03/02 19:35:32;;;;;;;30.77;11.40;;;;;0.20;96625.00;;;;8427059;28;20243;-77
2022/03/02 19:40:09;;;;;;;24.23;11.97;;;;;0.00;96624.00;;;;8432527;28;20219;-77
2022/03/02 19:44:47;;;;;;;35.13;12.80;;;;;-0.10;96624.00;;;;8431550;28;20215;-77
2022/03/02 19:49:24;;;;;;;30.17;12.57;;;;;-0.10;96616.00;;;;8433427;28;20373;-76
2022/03/02 19:53:58;;;;;;;34.40;13.70;;;;;-0.30;96621.00;;;;8427629;28;20227;-76
2022/03/02 19:58:36;;;;;;;29.40;11.90;;;;;-0.50;96623.00;;;;8429810;28;20226;-75
2022/03/02 20:03:11;;;;;;;30.10;12.43;;;;;-0.60;96624.00;;;;8432344;28;20718;-75
2022/03/02 20:12:47;;;;;;;28.23;13.00;;;;;-0.70;96608.00;;;;8430653;28;20545;-76
2022/03/02 20:17:22;;;;;;;33.40;13.30;;;;;-0.80;96605.00;;;;8430187;28;20249;-77
2022/03/02 20:22:01;;;;;;;27.17;12.50;;;;;-0.90;96609.00;;;;8424455;28;20234;-76
2022/03/02 20:26:35;;;;;;;35.93;13.40;;;;;-1.00;96612.00;;;;8430201;28;20224;-76
2022/03/02 20:31:12;;;;;;;31.87;13.80;;;;;-1.00;96609.00;;;;8429722;28;20230;-76
2022/03/02 20:35:49;;;;;;;36.07;14.23;;;;;-1.00;96610.00;;;;8429198;28;20330;-75
2022/03/02 20:40:27;;;;;;;33.17;13.03;;;;;-1.10;96613.00;;;;8431245;28;20644;-74
2022/03/02 20:45:04;;;;;;;29.27;13.30;;;;;-1.20;96600.00;;;;8430593;28;20279;-74
2022/03/02 20:49:37;;;;;;;30.00;12.73;;;;;-1.30;96600.00;;;;8428580;28;20230;-74
2022/03/02 20:54:17;;;;;;;31.87;14.00;;;;;-1.40;96608.00;;;;8430954;28;20219;-74
2022/03/02 20:58:52;;;;;;;25.27;12.70;;;;;-1.40;96603.00;;;;8428404;28;20226;-75
2022/03/02 21:03:25;;;;;;;34.93;12.73;;;;;-1.50;96596.00;;;;8428047;28;20276;-74
2022/03/02 21:07:29;;;;;;;30.37;12.77;;;;;-1.60;96602.00;;;;8430071;28;20257;-73
2022/03/02 21:12:06;;;;;;;29.40;12.37;;;;;-1.70;96604.00;;;;8428839;28;20231;-73
2022/03/02 21:16:10;;;;;;;34.83;13.47;;;;;-1.70;96605.00;;;;8429215;28;20219;-72